createdAt,value
2023-04-26T00:00:13.504Z,2.50
2023-04-26T00:00:44.007Z,2.50
2023-04-26T00:01:14.937Z,2.50
2023-04-26T00:01:45.844Z,2.50
2023-04-26T00:02:16.803Z,3.20
2023-04-26T00:02:47.827Z,2.40
2023-04-26T00:03:18.554Z,2.70
2023-04-26T00:03:49.152Z,2.30
2023-04-26T00:04:20.049Z,2.10
2023-04-26T00:04:50.829Z,3.10
2023-04-26T00:05:21.546Z,3.00
2023-04-26T00:05:52.150Z,2.60
2023-04-26T00:06:23.035Z,2.60
2023-04-26T00:06:53.982Z,2.60
2023-04-26T00:07:55.847Z,2.40
2023-04-26T00:08:26.756Z,2.60
2023-04-26T00:08:57.679Z,2.80
2023-04-26T00:09:28.596Z,2.90
2023-04-26T00:09:59.519Z,3.30
2023-04-26T00:10:30.426Z,3.20
2023-04-26T00:11:01.349Z,2.50
2023-04-26T00:11:32.285Z,3.30
2023-04-26T00:12:03.182Z,2.70
2023-04-26T00:12:34.070Z,3.00
2023-04-26T00:13:04.982Z,2.70
2023-04-26T00:13:35.897Z,3.60
2023-04-26T00:14:06.785Z,2.90
2023-04-26T00:14:37.675Z,3.10
2023-04-26T00:15:08.604Z,3.40
2023-04-26T00:15:39.499Z,3.10
2023-04-26T00:16:10.530Z,3.20
2023-04-26T00:16:41.012Z,2.90
2023-04-26T00:17:11.504Z,3.00
2023-04-26T00:17:42.448Z,3.30
2023-04-26T00:18:13.442Z,3.10
2023-04-26T00:18:44.335Z,2.90
2023-04-26T00:19:15.251Z,3.20
2023-04-26T00:19:46.195Z,3.10
2023-04-26T00:20:17.108Z,3.20
2023-04-26T00:20:48.007Z,2.70
2023-04-26T00:21:18.938Z,3.30
2023-04-26T00:21:49.863Z,2.70
2023-04-26T00:22:20.780Z,2.80
2023-04-26T00:22:51.722Z,2.80
2023-04-26T00:23:22.656Z,2.70
2023-04-26T00:23:53.619Z,3.00
2023-04-26T00:24:24.512Z,2.50
2023-04-26T00:25:26.376Z,2.90
2023-04-26T00:25:57.280Z,2.80
2023-04-26T00:26:28.196Z,3.20
2023-04-26T00:26:59.124Z,2.90
2023-04-26T00:27:30.045Z,2.80
2023-04-26T00:28:00.951Z,2.80
2023-04-26T00:28:31.899Z,2.90
2023-04-26T00:29:02.826Z,3.00
2023-04-26T00:29:34.519Z,2.70
2023-04-26T00:30:04.405Z,3.20
2023-04-26T00:30:35.320Z,3.10
2023-04-26T00:31:06.249Z,3.20
2023-04-26T00:31:37.220Z,3.10
2023-04-26T00:32:08.175Z,2.40
2023-04-26T00:32:38.664Z,2.80
2023-04-26T00:33:09.647Z,2.80
2023-04-26T00:33:40.559Z,2.70
2023-04-26T00:34:11.478Z,3.40
2023-04-26T00:34:42.384Z,3.10
2023-04-26T00:35:13.315Z,3.60
2023-04-26T00:35:44.245Z,3.00
2023-04-26T00:36:15.147Z,2.70
2023-04-26T00:36:46.074Z,3.00
2023-04-26T00:37:17.001Z,3.20
2023-04-26T00:37:47.896Z,3.10
2023-04-26T00:38:18.822Z,2.70
2023-04-26T00:38:49.870Z,2.60
2023-04-26T00:39:20.311Z,3.10
2023-04-26T00:39:51.263Z,3.30
2023-04-26T00:40:22.185Z,2.80
2023-04-26T00:40:53.097Z,2.90
2023-04-26T00:41:24.027Z,2.70
2023-04-26T00:41:54.948Z,2.80
2023-04-26T00:42:56.802Z,3.00
2023-04-26T00:43:27.714Z,2.80
2023-04-26T00:43:58.649Z,3.10
2023-04-26T00:44:29.556Z,2.80
2023-04-26T00:45:00.470Z,2.90
2023-04-26T00:45:31.415Z,3.00
2023-04-26T00:46:02.364Z,3.10
2023-04-26T00:46:33.281Z,2.80
2023-04-26T00:47:04.213Z,2.90
2023-04-26T00:47:35.102Z,3.00
2023-04-26T00:48:06.044Z,3.50
2023-04-26T00:48:36.987Z,2.90
2023-04-26T00:49:07.907Z,3.50
2023-04-26T00:49:38.818Z,3.00
2023-04-26T00:50:09.742Z,3.20
2023-04-26T00:50:40.694Z,3.10
2023-04-26T00:51:11.617Z,2.10
2023-04-26T00:51:42.510Z,3.00
2023-04-26T00:52:13.434Z,2.90
2023-04-26T00:52:44.363Z,3.20
2023-04-26T00:53:15.325Z,2.70
2023-04-26T00:53:46.244Z,3.00
2023-04-26T00:54:17.171Z,3.00
2023-04-26T00:54:48.107Z,3.20
2023-04-26T00:55:19.036Z,2.80
2023-04-26T00:55:49.979Z,2.60
2023-04-26T00:56:20.977Z,2.90
2023-04-26T00:56:51.898Z,2.80
2023-04-26T00:57:22.815Z,2.60
2023-04-26T00:57:53.736Z,2.50
2023-04-26T00:58:24.666Z,3.20
2023-04-26T00:58:55.652Z,2.60
2023-04-26T00:59:26.570Z,2.80
2023-04-26T01:00:28.432Z,2.90
2023-04-26T01:00:59.366Z,2.90
2023-04-26T01:01:30.378Z,3.10
2023-04-26T01:02:00.927Z,3.10
2023-04-26T01:02:31.950Z,2.80
2023-04-26T01:03:02.553Z,2.80
2023-04-26T01:03:33.150Z,2.70
2023-04-26T01:04:03.904Z,2.80
2023-04-26T01:04:34.476Z,2.80
2023-04-26T01:05:05.411Z,3.00
2023-04-26T01:05:36.344Z,2.50
2023-04-26T01:06:07.284Z,2.50
2023-04-26T01:06:38.201Z,2.90
2023-04-26T01:07:09.107Z,3.00
2023-04-26T01:07:40.054Z,2.70
2023-04-26T01:08:10.980Z,2.50
2023-04-26T01:08:41.903Z,3.10
2023-04-26T01:09:12.858Z,2.80
2023-04-26T01:09:43.764Z,2.30
2023-04-26T01:10:14.689Z,2.70
2023-04-26T01:10:45.609Z,2.70
2023-04-26T01:11:16.563Z,2.60
2023-04-26T01:11:47.496Z,2.80
2023-04-26T01:12:18.422Z,2.40
2023-04-26T01:13:20.258Z,2.60
2023-04-26T01:13:51.193Z,2.50
2023-04-26T01:14:22.145Z,2.90
2023-04-26T01:14:53.036Z,2.60
2023-04-26T01:15:23.960Z,2.90
2023-04-26T01:15:54.901Z,2.60
2023-04-26T01:16:25.941Z,2.60
2023-04-26T01:16:56.391Z,2.70
2023-04-26T01:17:27.366Z,2.60
2023-04-26T01:17:57.928Z,2.60
2023-04-26T01:18:28.844Z,2.80
2023-04-26T01:18:59.744Z,2.50
2023-04-26T01:19:30.677Z,2.90
2023-04-26T01:20:01.612Z,2.40
2023-04-26T01:20:32.549Z,2.90
2023-04-26T01:21:03.652Z,2.80
2023-04-26T01:21:34.057Z,2.40
2023-04-26T01:22:04.977Z,2.50
2023-04-26T01:22:35.902Z,2.50
2023-04-26T01:23:06.834Z,2.60
2023-04-26T01:23:37.752Z,2.90
2023-04-26T01:24:08.705Z,3.00
2023-04-26T01:24:39.581Z,2.40
2023-04-26T01:25:10.502Z,2.70
2023-04-26T01:25:41.448Z,2.90
2023-04-26T01:26:12.344Z,2.60
2023-04-26T01:26:43.250Z,2.50
2023-04-26T01:27:14.177Z,2.70
2023-04-26T01:27:45.079Z,2.60
2023-04-26T01:28:16.018Z,3.00
2023-04-26T01:28:46.930Z,2.20
2023-04-26T01:29:17.911Z,2.90
2023-04-26T01:29:48.861Z,2.50
2023-04-26T01:30:50.718Z,2.80
2023-04-26T01:31:21.670Z,2.90
2023-04-26T01:31:52.583Z,2.60
2023-04-26T01:32:23.506Z,3.10
2023-04-26T01:32:54.431Z,2.50
2023-04-26T01:33:25.374Z,2.90
2023-04-26T01:33:56.352Z,2.60
2023-04-26T01:34:27.288Z,2.60
2023-04-26T01:34:58.222Z,2.40
2023-04-26T01:35:29.149Z,2.40
2023-04-26T01:36:00.110Z,2.50
2023-04-26T01:36:31.016Z,2.40
2023-04-26T01:37:01.950Z,2.30
2023-04-26T01:37:32.870Z,2.10
2023-04-26T01:38:03.798Z,2.60
2023-04-26T01:38:34.710Z,2.60
2023-04-26T01:39:05.614Z,2.30
2023-04-26T01:39:36.533Z,2.30
2023-04-26T01:40:07.498Z,2.60
2023-04-26T01:40:38.432Z,2.70
2023-04-26T01:41:09.354Z,2.10
2023-04-26T01:41:40.294Z,2.70
2023-04-26T01:42:11.202Z,2.40
2023-04-26T01:42:42.127Z,2.50
2023-04-26T01:43:13.047Z,2.50
2023-04-26T01:43:43.974Z,2.30
2023-04-26T01:44:14.902Z,2.60
2023-04-26T01:44:45.829Z,2.10
2023-04-26T01:45:16.736Z,3.00
2023-04-26T01:45:47.675Z,2.10
2023-04-26T01:46:18.640Z,2.40
2023-04-26T01:46:49.605Z,2.80
2023-04-26T01:47:20.075Z,2.30
2023-04-26T01:47:51.023Z,2.50
2023-04-26T01:48:21.936Z,2.10
2023-04-26T01:48:53.063Z,2.80
2023-04-26T01:49:23.646Z,2.30
2023-04-26T01:49:54.563Z,2.40
2023-04-26T01:50:25.530Z,2.70
2023-04-26T01:50:56.443Z,2.80
2023-04-26T01:51:27.376Z,2.50
2023-04-26T01:51:58.325Z,2.60
2023-04-26T01:53:00.136Z,2.40
2023-04-26T01:53:31.065Z,3.10
2023-04-26T01:54:01.991Z,2.30
2023-04-26T01:54:32.935Z,2.80
2023-04-26T01:55:03.885Z,2.70
2023-04-26T01:55:34.792Z,2.30
2023-04-26T01:56:05.759Z,2.60
2023-04-26T01:56:36.682Z,2.50
2023-04-26T01:57:07.635Z,2.40
2023-04-26T01:57:38.556Z,2.40
2023-04-26T01:58:09.460Z,2.10
2023-04-26T01:58:40.388Z,2.30
2023-04-26T01:59:11.292Z,2.60
2023-04-26T01:59:42.209Z,2.20
2023-04-26T02:00:13.125Z,2.80
2023-04-26T02:00:44.042Z,2.60
2023-04-26T02:01:15.014Z,2.20
2023-04-26T02:01:45.964Z,2.60
2023-04-26T02:02:16.466Z,2.20
2023-04-26T02:02:47.492Z,2.30
2023-04-26T02:03:18.059Z,2.20
2023-04-26T02:03:48.599Z,2.30
2023-04-26T02:04:19.541Z,2.50
2023-04-26T02:04:50.526Z,2.30
2023-04-26T02:05:52.356Z,2.50
2023-04-26T02:06:23.281Z,2.40
2023-04-26T02:06:54.207Z,1.90
2023-04-26T02:07:25.145Z,2.40
2023-04-26T02:07:56.070Z,2.20
2023-04-26T02:08:27.007Z,2.30
2023-04-26T02:08:57.923Z,2.50
2023-04-26T02:09:28.833Z,2.50
2023-04-26T02:09:59.753Z,2.60
2023-04-26T02:10:30.681Z,2.60
2023-04-26T02:11:01.605Z,2.30
2023-04-26T02:11:32.490Z,2.20
2023-04-26T02:12:03.443Z,2.00
2023-04-26T02:12:34.339Z,2.30
2023-04-26T02:13:05.254Z,2.60
2023-04-26T02:13:36.169Z,2.20
2023-04-26T02:14:07.071Z,2.40
2023-04-26T02:14:37.973Z,2.30
2023-04-26T02:15:08.882Z,2.20
2023-04-26T02:15:39.824Z,2.70
2023-04-26T02:16:10.810Z,2.70
2023-04-26T02:16:41.270Z,2.00
2023-04-26T02:17:12.181Z,2.40
2023-04-26T02:17:43.182Z,2.10
2023-04-26T02:18:14.182Z,2.30
2023-04-26T02:18:44.693Z,2.10
2023-04-26T02:19:15.598Z,2.00
2023-04-26T02:19:46.522Z,2.20
2023-04-26T02:20:17.428Z,2.40
2023-04-26T02:20:48.330Z,2.40
2023-04-26T02:21:19.247Z,2.60
2023-04-26T02:21:50.174Z,2.00
2023-04-26T02:22:21.091Z,2.20
2023-04-26T02:23:22.938Z,2.30
2023-04-26T02:23:53.903Z,2.10
2023-04-26T02:24:24.847Z,2.10
2023-04-26T02:24:55.763Z,2.10
2023-04-26T02:25:26.670Z,2.50
2023-04-26T02:25:57.595Z,2.30
2023-04-26T02:26:28.515Z,2.70
2023-04-26T02:26:59.474Z,1.90
2023-04-26T02:27:30.382Z,2.30
2023-04-26T02:28:01.301Z,2.40
2023-04-26T02:28:32.269Z,2.20
2023-04-26T02:29:03.173Z,2.20
2023-04-26T02:29:42.841Z,2.20
2023-04-26T02:30:04.909Z,2.40
2023-04-26T02:30:35.838Z,2.60
2023-04-26T02:31:06.865Z,2.60
2023-04-26T02:31:37.808Z,2.10
2023-04-26T02:32:08.728Z,2.00
2023-04-26T02:32:39.696Z,2.30
2023-04-26T02:33:10.592Z,2.10
2023-04-26T02:33:41.530Z,2.40
2023-04-26T02:34:12.451Z,2.20
2023-04-26T02:34:43.386Z,2.40
2023-04-26T02:35:14.305Z,2.20
2023-04-26T02:35:45.221Z,2.10
2023-04-26T02:36:16.122Z,2.20
2023-04-26T02:36:47.023Z,2.30
2023-04-26T02:37:17.937Z,2.30
2023-04-26T02:37:48.841Z,2.20
2023-04-26T02:38:19.757Z,2.00
2023-04-26T02:38:50.895Z,2.20
2023-04-26T02:39:21.465Z,2.20
2023-04-26T02:39:52.398Z,2.10
2023-04-26T02:40:23.315Z,2.30
2023-04-26T02:40:54.239Z,2.80
2023-04-26T02:41:25.178Z,2.00
2023-04-26T02:41:56.100Z,2.30
2023-04-26T02:42:27.004Z,2.30
2023-04-26T02:42:57.919Z,2.40
2023-04-26T02:43:28.837Z,2.30
2023-04-26T02:43:59.758Z,2.40
2023-04-26T02:44:30.660Z,3.20
2023-04-26T02:45:32.509Z,2.00
2023-04-26T02:46:03.407Z,2.40
2023-04-26T02:46:34.409Z,2.30
2023-04-26T02:47:05.046Z,2.60
2023-04-26T02:47:35.534Z,2.20
2023-04-26T02:48:06.608Z,2.90
2023-04-26T02:48:37.119Z,2.90
2023-04-26T02:49:08.031Z,2.10
2023-04-26T02:49:38.949Z,2.20
2023-04-26T02:50:09.874Z,2.00
2023-04-26T02:50:40.804Z,2.10
2023-04-26T02:51:11.737Z,2.20
2023-04-26T02:51:42.638Z,1.90
2023-04-26T02:52:13.566Z,2.40
2023-04-26T02:52:44.495Z,2.10
2023-04-26T02:53:15.429Z,2.00
2023-04-26T02:53:46.323Z,2.20
2023-04-26T02:54:17.223Z,2.10
2023-04-26T02:54:48.146Z,2.20
2023-04-26T02:55:19.059Z,2.30
2023-04-26T02:55:49.988Z,2.10
2023-04-26T02:56:20.883Z,2.10
2023-04-26T02:56:51.808Z,1.90
2023-04-26T02:57:22.724Z,2.10
2023-04-26T02:57:53.627Z,2.20
2023-04-26T02:58:24.578Z,2.30
2023-04-26T02:58:55.484Z,2.10
2023-04-26T02:59:26.378Z,2.00
2023-04-26T02:59:57.319Z,2.20
2023-04-26T03:00:28.225Z,2.10
2023-04-26T03:01:01.103Z,2.80
2023-04-26T03:01:29.744Z,2.10
2023-04-26T03:02:00.261Z,2.20
2023-04-26T03:02:31.262Z,2.60
2023-04-26T03:03:01.873Z,1.60
2023-04-26T03:03:32.462Z,2.30
2023-04-26T03:04:03.072Z,2.40
2023-04-26T03:04:33.522Z,2.70
2023-04-26T03:05:04.440Z,2.40
2023-04-26T03:05:35.333Z,2.40
2023-04-26T03:06:06.278Z,2.30
2023-04-26T03:06:37.209Z,2.00
2023-04-26T03:07:08.169Z,2.30
2023-04-26T03:07:39.075Z,2.30
2023-04-26T03:08:09.998Z,2.30
2023-04-26T03:08:40.930Z,2.50
2023-04-26T03:09:11.846Z,2.40
2023-04-26T03:09:42.783Z,2.60
2023-04-26T03:10:13.702Z,2.10
2023-04-26T03:11:15.549Z,2.30
2023-04-26T03:11:48.900Z,2.20
2023-04-26T03:12:17.431Z,2.10
2023-04-26T03:12:48.356Z,2.50
2023-04-26T03:13:19.271Z,2.20
2023-04-26T03:13:50.182Z,2.20
2023-04-26T03:14:21.105Z,2.10
2023-04-26T03:14:52.008Z,2.20
2023-04-26T03:15:53.834Z,2.20
2023-04-26T03:16:24.752Z,2.30
2023-04-26T03:16:55.843Z,2.10
2023-04-26T03:17:26.328Z,2.20
2023-04-26T03:17:57.306Z,2.20
2023-04-26T03:18:27.730Z,2.20
2023-04-26T03:18:58.649Z,1.80
2023-04-26T03:19:29.569Z,2.50
2023-04-26T03:20:02.485Z,2.30
2023-04-26T03:20:31.325Z,2.40
2023-04-26T03:21:02.235Z,2.20
2023-04-26T03:21:33.187Z,2.00
2023-04-26T03:22:04.107Z,1.80
2023-04-26T03:22:35.041Z,2.20
2023-04-26T03:23:05.949Z,2.30
2023-04-26T03:23:36.898Z,2.20
2023-04-26T03:24:07.822Z,3.10
2023-04-26T03:24:38.729Z,2.20
2023-04-26T03:25:09.702Z,1.70
2023-04-26T03:25:40.607Z,2.00
2023-04-26T03:26:11.544Z,2.20
2023-04-26T03:26:42.480Z,2.20
2023-04-26T03:27:13.380Z,2.10
2023-04-26T03:27:44.312Z,2.00
2023-04-26T03:28:15.235Z,2.30
2023-04-26T03:28:46.157Z,2.30
2023-04-26T03:29:17.079Z,2.30
2023-04-26T03:29:47.976Z,2.20
2023-04-26T03:30:18.919Z,1.80
2023-04-26T03:30:49.848Z,2.00
2023-04-26T03:31:20.814Z,2.10
2023-04-26T03:31:51.780Z,2.10
2023-04-26T03:32:22.689Z,2.00
2023-04-26T03:33:24.493Z,2.10
2023-04-26T03:33:55.415Z,2.20
2023-04-26T03:34:26.315Z,2.30
2023-04-26T03:34:57.243Z,2.20
2023-04-26T03:35:28.178Z,2.20
2023-04-26T03:35:59.085Z,2.50
2023-04-26T03:36:30.044Z,2.40
2023-04-26T03:37:01.005Z,2.20
2023-04-26T03:37:31.899Z,2.50
2023-04-26T03:38:02.803Z,2.20
2023-04-26T03:38:33.696Z,2.20
2023-04-26T03:39:04.619Z,2.30
2023-04-26T03:39:35.526Z,2.30
2023-04-26T03:40:06.423Z,3.00
2023-04-26T03:40:37.359Z,2.30
2023-04-26T03:41:08.276Z,2.30
2023-04-26T03:41:39.191Z,2.10
2023-04-26T03:42:10.113Z,2.10
2023-04-26T03:42:41.004Z,2.30
2023-04-26T03:43:11.832Z,2.20
2023-04-26T03:43:42.729Z,2.10
2023-04-26T03:44:13.653Z,2.10
2023-04-26T03:44:44.583Z,2.00
2023-04-26T03:45:15.500Z,2.30
2023-04-26T03:45:46.392Z,2.00
2023-04-26T03:46:17.282Z,2.50
2023-04-26T03:46:48.178Z,2.40
2023-04-26T03:47:19.100Z,2.60
2023-04-26T03:47:50.057Z,2.10
2023-04-26T03:48:20.970Z,2.00
2023-04-26T03:48:52.199Z,2.30
2023-04-26T03:49:22.761Z,2.10
2023-04-26T03:49:53.621Z,1.90
2023-04-26T03:50:55.377Z,2.20
2023-04-26T03:51:26.250Z,2.20
2023-04-26T03:51:57.109Z,2.00
2023-04-26T03:52:28.012Z,1.90
2023-04-26T03:52:58.852Z,2.20
2023-04-26T03:53:29.712Z,2.40
2023-04-26T03:54:00.608Z,2.10
2023-04-26T03:54:31.479Z,2.30
2023-04-26T03:55:02.394Z,2.40
2023-04-26T03:55:33.222Z,1.80
2023-04-26T03:56:04.084Z,2.20
2023-04-26T03:56:34.981Z,2.10
2023-04-26T03:57:05.880Z,2.20
2023-04-26T03:57:36.742Z,2.20
2023-04-26T03:58:07.614Z,2.20
2023-04-26T03:58:38.499Z,2.40
2023-04-26T03:59:09.363Z,2.30
2023-04-26T03:59:40.217Z,2.40
2023-04-26T04:00:11.099Z,2.10
2023-04-26T04:00:41.980Z,2.20
2023-04-26T04:01:12.849Z,2.10
2023-04-26T04:01:43.739Z,2.80
2023-04-26T04:02:14.631Z,2.00
2023-04-26T04:02:45.687Z,2.10
2023-04-26T04:03:16.260Z,2.20
2023-04-26T04:03:46.940Z,2.50
2023-04-26T04:04:17.600Z,2.30
2023-04-26T04:04:48.252Z,2.00
2023-04-26T04:05:18.773Z,2.00
2023-04-26T04:05:49.183Z,2.40
2023-04-26T04:06:20.060Z,2.60
2023-04-26T04:06:50.938Z,2.50
2023-04-26T04:07:21.783Z,2.10
2023-04-26T04:07:52.675Z,2.00
2023-04-26T04:08:23.513Z,2.40
2023-04-26T04:08:54.640Z,2.60
2023-04-26T04:09:25.224Z,2.20
2023-04-26T04:09:56.088Z,2.20
2023-04-26T04:10:26.960Z,2.80
2023-04-26T04:10:57.832Z,2.00
2023-04-26T04:11:28.710Z,2.50
2023-04-26T04:11:59.565Z,2.70
2023-04-26T04:12:30.430Z,2.30
2023-04-26T04:13:01.294Z,2.10
2023-04-26T04:13:32.158Z,2.00
2023-04-26T04:14:03.034Z,2.30
2023-04-26T04:14:33.900Z,2.50
2023-04-26T04:15:04.773Z,2.00
2023-04-26T04:15:35.704Z,2.30
2023-04-26T04:16:06.618Z,2.10
2023-04-26T04:16:37.478Z,2.40
2023-04-26T04:17:08.353Z,2.30
2023-04-26T04:17:39.237Z,2.10
2023-04-26T04:18:10.156Z,2.40
2023-04-26T04:18:41.050Z,2.10
2023-04-26T04:19:11.926Z,2.20
2023-04-26T04:19:42.776Z,2.30
2023-04-26T04:20:13.611Z,2.20
2023-04-26T04:20:44.488Z,2.00
2023-04-26T04:21:15.390Z,2.50
2023-04-26T04:21:46.225Z,1.90
2023-04-26T04:22:17.085Z,2.40
2023-04-26T04:22:47.946Z,2.90
2023-04-26T04:23:18.833Z,2.30
2023-04-26T04:23:49.674Z,2.50
2023-04-26T04:24:20.542Z,2.10
2023-04-26T04:24:51.412Z,2.50
2023-04-26T04:25:22.285Z,2.00
2023-04-26T04:25:53.148Z,2.30
2023-04-26T04:26:24.024Z,2.50
2023-04-26T04:26:54.878Z,1.90
2023-04-26T04:27:25.757Z,2.20
2023-04-26T04:27:56.632Z,2.50
2023-04-26T04:28:27.517Z,2.30
2023-04-26T04:29:29.258Z,2.20
2023-04-26T04:30:00.164Z,2.30
2023-04-26T04:30:31.009Z,2.60
2023-04-26T04:31:01.980Z,2.30
2023-04-26T04:31:32.878Z,2.10
2023-04-26T04:32:03.734Z,2.70
2023-04-26T04:32:34.651Z,2.10
2023-04-26T04:33:05.692Z,2.10
2023-04-26T04:33:36.094Z,2.30
2023-04-26T04:34:06.953Z,2.30
2023-04-26T04:34:37.815Z,2.00
2023-04-26T04:35:08.680Z,2.20
2023-04-26T04:35:39.549Z,2.30
2023-04-26T04:36:10.417Z,2.20
2023-04-26T04:36:41.298Z,2.70
2023-04-26T04:37:12.172Z,2.20
2023-04-26T04:37:43.003Z,2.30
2023-04-26T04:38:13.905Z,2.50
2023-04-26T04:38:44.782Z,2.50
2023-04-26T04:39:15.642Z,2.10
2023-04-26T04:39:46.480Z,2.20
2023-04-26T04:40:17.385Z,2.50
2023-04-26T04:40:48.248Z,2.70
2023-04-26T04:41:20.131Z,2.30
2023-04-26T04:41:49.970Z,2.40
2023-04-26T04:42:20.845Z,2.50
2023-04-26T04:42:51.687Z,2.50
2023-04-26T04:43:22.587Z,2.50
2023-04-26T04:43:53.480Z,2.30
2023-04-26T04:44:24.342Z,2.20
2023-04-26T04:44:55.230Z,2.20
2023-04-26T04:45:26.095Z,2.10
2023-04-26T04:45:56.942Z,2.20
2023-04-26T04:46:27.864Z,2.10
2023-04-26T04:46:58.804Z,2.50
2023-04-26T04:47:29.717Z,2.60
2023-04-26T04:48:00.625Z,2.30
2023-04-26T04:48:31.485Z,2.50
2023-04-26T04:49:02.339Z,2.20
2023-04-26T04:49:33.203Z,2.30
2023-04-26T04:50:04.104Z,2.90
2023-04-26T04:50:34.964Z,2.70
2023-04-26T04:51:05.840Z,2.70
2023-04-26T04:51:36.704Z,3.00
2023-04-26T04:52:07.556Z,2.90
2023-04-26T04:52:38.453Z,3.50
2023-04-26T04:53:09.333Z,3.00
2023-04-26T04:53:40.200Z,2.90
2023-04-26T04:54:11.153Z,2.70
2023-04-26T04:54:41.992Z,3.00
2023-04-26T04:55:12.869Z,2.90
2023-04-26T04:55:43.721Z,2.90
2023-04-26T04:56:14.623Z,3.10
2023-04-26T04:56:45.509Z,2.80
2023-04-26T04:57:16.400Z,2.70
2023-04-26T04:57:47.298Z,2.90
2023-04-26T04:58:18.157Z,2.40
2023-04-26T04:58:49.100Z,2.20
2023-04-26T04:59:50.772Z,2.60
2023-04-26T05:00:21.625Z,2.40
2023-04-26T05:00:52.503Z,2.30
2023-04-26T05:01:23.411Z,2.70
2023-04-26T05:01:54.302Z,2.80
2023-04-26T05:02:25.449Z,2.90
2023-04-26T05:02:56.224Z,2.60
2023-04-26T05:03:26.752Z,2.10
2023-04-26T05:03:57.787Z,2.40
2023-04-26T05:04:28.091Z,2.10
2023-04-26T05:04:58.567Z,2.20
2023-04-26T05:05:29.401Z,2.30
2023-04-26T05:06:00.280Z,2.40
2023-04-26T05:06:31.125Z,2.10
2023-04-26T05:07:01.996Z,2.30
2023-04-26T05:07:32.870Z,2.40
2023-04-26T05:08:03.784Z,2.20
2023-04-26T05:08:34.642Z,2.10
2023-04-26T05:09:05.476Z,2.60
2023-04-26T05:09:36.357Z,2.30
2023-04-26T05:10:07.218Z,2.40
2023-04-26T05:10:38.064Z,2.70
2023-04-26T05:11:08.947Z,2.40
2023-04-26T05:11:39.810Z,2.50
2023-04-26T05:12:10.658Z,2.80
2023-04-26T05:12:41.532Z,2.40
2023-04-26T05:13:12.410Z,2.70
2023-04-26T05:13:43.269Z,2.20
2023-04-26T05:14:14.130Z,2.30
2023-04-26T05:14:45.005Z,2.40
2023-04-26T05:15:15.877Z,2.50
2023-04-26T05:15:46.730Z,2.30
2023-04-26T05:16:17.651Z,2.70
2023-04-26T05:16:48.491Z,3.10
2023-04-26T05:17:19.440Z,2.60
2023-04-26T05:17:50.359Z,2.60
2023-04-26T05:18:21.221Z,2.70
2023-04-26T05:18:52.103Z,2.90
2023-04-26T05:19:22.975Z,2.40
2023-04-26T05:19:53.808Z,2.50
2023-04-26T05:20:24.689Z,2.50
2023-04-26T05:20:55.541Z,2.60
2023-04-26T05:21:26.401Z,2.60
2023-04-26T05:21:57.257Z,2.70
2023-04-26T05:22:28.117Z,2.50
2023-04-26T05:22:58.982Z,2.30
2023-04-26T05:23:29.820Z,2.80
2023-04-26T05:24:00.677Z,2.70
2023-04-26T05:24:31.560Z,2.70
2023-04-26T05:25:33.305Z,2.70
2023-04-26T05:26:04.186Z,2.80
2023-04-26T05:26:35.067Z,2.70
2023-04-26T05:27:05.928Z,3.20
2023-04-26T05:27:36.792Z,3.10
2023-04-26T05:28:07.652Z,3.00
2023-04-26T05:28:38.558Z,2.90
2023-04-26T05:29:09.449Z,3.00
2023-04-26T05:29:40.298Z,2.50
2023-04-26T05:30:11.155Z,2.70
2023-04-26T05:30:42.035Z,2.60
2023-04-26T05:31:12.965Z,2.60
2023-04-26T05:31:43.878Z,2.50
2023-04-26T05:32:14.723Z,2.50
2023-04-26T05:32:45.712Z,2.50
2023-04-26T05:33:16.237Z,2.60
2023-04-26T05:33:47.123Z,2.40
2023-04-26T05:34:17.990Z,2.60
2023-04-26T05:34:48.875Z,2.20
2023-04-26T05:35:19.747Z,2.80
2023-04-26T05:35:50.601Z,3.00
2023-04-26T05:36:21.474Z,2.80
2023-04-26T05:36:52.351Z,3.00
2023-04-26T05:37:23.235Z,2.40
2023-04-26T05:37:54.146Z,2.80
2023-04-26T05:38:25.008Z,2.30
2023-04-26T05:38:55.856Z,2.80
2023-04-26T05:39:26.734Z,2.30
2023-04-26T05:39:57.617Z,2.70
2023-04-26T05:40:28.492Z,3.20
2023-04-26T05:40:59.331Z,2.80
2023-04-26T05:41:30.168Z,2.50
2023-04-26T05:42:01.026Z,2.30
2023-04-26T05:42:31.886Z,2.60
2023-04-26T05:43:02.759Z,2.30
2023-04-26T05:43:33.621Z,2.60
2023-04-26T05:44:04.504Z,2.80
2023-04-26T05:44:35.425Z,2.80
2023-04-26T05:45:06.341Z,2.50
2023-04-26T05:45:37.352Z,2.80
2023-04-26T05:46:07.736Z,2.60
2023-04-26T05:46:38.649Z,2.40
2023-04-26T05:47:09.518Z,2.90
2023-04-26T05:47:40.406Z,3.10
2023-04-26T05:48:11.324Z,2.90
2023-04-26T05:48:42.168Z,2.80
2023-04-26T05:49:13.062Z,2.50
2023-04-26T05:49:43.947Z,2.60
2023-04-26T05:50:14.811Z,2.80
2023-04-26T05:50:45.673Z,3.00
2023-04-26T05:51:16.561Z,3.10
2023-04-26T05:51:47.422Z,3.00
2023-04-26T05:52:18.284Z,2.90
2023-04-26T05:52:49.141Z,3.10
2023-04-26T05:53:20.019Z,2.80
2023-04-26T05:53:51.181Z,2.30
2023-04-26T05:54:21.642Z,2.50
2023-04-26T05:54:52.521Z,3.10
2023-04-26T05:55:23.380Z,2.70
2023-04-26T05:55:54.260Z,2.40
2023-04-26T05:56:25.106Z,2.80
2023-04-26T05:56:58.348Z,2.50
2023-04-26T05:57:26.944Z,2.90
2023-04-26T05:57:57.845Z,2.80
2023-04-26T05:58:28.686Z,2.90
2023-04-26T05:58:59.611Z,2.40
2023-04-26T05:59:30.476Z,2.60
2023-04-26T06:00:01.369Z,2.80
2023-04-26T06:00:32.226Z,2.50
2023-04-26T06:01:03.133Z,2.80
2023-04-26T06:01:33.981Z,2.90
2023-04-26T06:02:04.915Z,2.90
2023-04-26T06:02:35.951Z,2.60
2023-04-26T06:03:06.696Z,2.70
2023-04-26T06:03:37.432Z,2.50
2023-04-26T06:04:08.832Z,3.00
2023-04-26T06:04:38.715Z,2.90
2023-04-26T06:05:09.410Z,3.30
2023-04-26T06:05:39.941Z,2.90
2023-04-26T06:06:10.827Z,2.90
2023-04-26T06:06:41.685Z,2.90
2023-04-26T06:07:12.566Z,3.60
2023-04-26T06:07:43.402Z,2.70
2023-04-26T06:08:14.280Z,2.70
2023-04-26T06:08:45.161Z,2.40
2023-04-26T06:09:17.366Z,3.00
2023-04-26T06:09:46.801Z,3.20
2023-04-26T06:10:17.698Z,2.90
2023-04-26T06:10:48.534Z,2.80
2023-04-26T06:11:19.411Z,3.50
2023-04-26T06:11:50.249Z,2.90
2023-04-26T06:12:21.105Z,2.70
2023-04-26T06:12:52.020Z,2.80
2023-04-26T06:13:22.878Z,2.80
2023-04-26T06:13:54.142Z,2.90
2023-04-26T06:14:30.502Z,2.50
2023-04-26T06:14:55.474Z,2.60
2023-04-26T06:15:26.322Z,3.90
2023-04-26T06:15:57.160Z,3.10
2023-04-26T06:16:28.034Z,2.80
2023-04-26T06:16:58.962Z,3.20
2023-04-26T06:17:29.879Z,2.70
2023-04-26T06:18:00.744Z,3.00
2023-04-26T06:18:31.631Z,2.90
2023-04-26T06:19:02.480Z,2.60
2023-04-26T06:19:33.331Z,3.20
2023-04-26T06:20:04.185Z,2.60
2023-04-26T06:20:35.072Z,2.80
2023-04-26T06:21:05.933Z,2.80
2023-04-26T06:21:36.769Z,3.20
2023-04-26T06:22:07.621Z,3.20
2023-04-26T06:22:38.507Z,2.80
2023-04-26T06:23:09.420Z,3.30
2023-04-26T06:23:40.368Z,3.50
2023-04-26T06:24:11.249Z,3.00
2023-04-26T06:25:12.939Z,3.30
2023-04-26T06:25:43.779Z,3.20
2023-04-26T06:26:14.638Z,3.50
2023-04-26T06:26:45.497Z,2.90
2023-04-26T06:27:16.337Z,2.90
2023-04-26T06:27:47.234Z,3.60
2023-04-26T06:28:18.086Z,3.00
2023-04-26T06:28:48.932Z,3.10
2023-04-26T06:29:19.800Z,3.10
2023-04-26T06:29:50.633Z,2.80
2023-04-26T06:30:21.559Z,3.20
2023-04-26T06:30:52.445Z,3.10
2023-04-26T06:31:23.396Z,3.00
2023-04-26T06:31:54.279Z,3.70
2023-04-26T06:32:25.135Z,3.50
2023-04-26T06:32:56.005Z,3.20
2023-04-26T06:33:26.870Z,2.80
2023-04-26T06:33:57.704Z,3.60
2023-04-26T06:34:28.588Z,2.90
2023-04-26T06:34:59.415Z,3.60
2023-04-26T06:35:30.243Z,3.30
2023-04-26T06:36:01.140Z,3.40
2023-04-26T06:36:31.976Z,2.90
2023-04-26T06:37:02.868Z,3.50
2023-04-26T06:38:04.656Z,3.40
2023-04-26T06:38:35.502Z,3.00
2023-04-26T06:39:06.384Z,3.60
2023-04-26T06:39:37.240Z,3.40
2023-04-26T06:40:08.159Z,3.40
2023-04-26T06:40:39.207Z,3.60
2023-04-26T06:41:09.547Z,3.10
2023-04-26T06:41:40.438Z,3.80
2023-04-26T06:42:11.389Z,3.40
2023-04-26T06:42:42.241Z,3.20
2023-04-26T06:43:13.108Z,3.40
2023-04-26T06:43:43.972Z,3.50
2023-04-26T06:44:14.833Z,3.30
2023-04-26T06:44:45.705Z,3.50
2023-04-26T06:45:16.549Z,3.90
2023-04-26T06:45:47.429Z,3.30
2023-04-26T06:46:18.305Z,3.50
2023-04-26T06:46:49.218Z,3.60
2023-04-26T06:47:20.189Z,3.50
2023-04-26T06:47:51.113Z,3.50
2023-04-26T06:48:21.976Z,3.50
2023-04-26T06:48:52.828Z,3.20
2023-04-26T06:49:23.679Z,3.80
2023-04-26T06:49:54.539Z,3.30
2023-04-26T06:50:56.472Z,3.60
2023-04-26T06:51:26.920Z,3.80
2023-04-26T06:51:57.769Z,3.80
2023-04-26T06:52:28.628Z,3.80
2023-04-26T06:52:59.508Z,3.10
2023-04-26T06:53:30.383Z,3.40
2023-04-26T06:54:01.241Z,3.30
2023-04-26T06:54:32.105Z,3.50
2023-04-26T06:55:02.720Z,3.40
2023-04-26T06:55:33.828Z,2.90
2023-04-26T06:56:04.212Z,3.40
2023-04-26T06:56:35.059Z,2.80
2023-04-26T06:57:05.918Z,3.00
2023-04-26T06:57:36.804Z,3.30
2023-04-26T06:58:07.676Z,2.80
2023-04-26T06:58:38.538Z,2.80
2023-04-26T06:59:09.396Z,3.20
2023-04-26T06:59:40.269Z,3.10
2023-04-26T07:00:11.164Z,2.80
2023-04-26T07:00:42.007Z,2.80
2023-04-26T07:01:12.917Z,2.80